Time;durP1;ratioP1;P1;durP2;ratioP2;P2;SDS_P1;SDS_P2;PMS_P1;PMS_P2;Temp;Humidity;BMP_temperature;BMP_pressure;BME280_temperature;BME280_humidity;BME280_pressure;Samples;Min_cycle;Max_cycle;Signal;HPM_P1;HPM_P2
2024/01/29 00:01:44;;;;;;;0.25;0.25;;;2.90;99.90;;;;;;5088184;27;20135;-73
2024/01/29 00:04:10;;;;;;;0.20;0.20;;;2.90;99.90;;;;;;5111928;27;20080;-73
2024/01/29 00:06:36;;;;;;;0.13;0.13;;;2.80;99.90;;;;;;5097723;27;20043;-73
2024/01/29 00:09:01;;;;;;;0.30;0.30;;;2.80;99.90;;;;;;5090075;27;20035;-73
2024/01/29 00:11:27;;;;;;;0.10;0.10;;;2.70;99.90;;;;;;5087656;27;20062;-73
2024/01/29 00:13:52;;;;;;;0.28;0.28;;;2.70;99.90;;;;;;5095700;27;20034;-72
2024/01/29 00:16:18;;;;;;;0.47;0.47;;;2.70;99.90;;;;;;5096132;28;20047;-72
2024/01/29 00:18:44;;;;;;;0.28;0.28;;;2.70;99.90;;;;;;5096586;27;20046;-73
2024/01/29 00:21:09;;;;;;;0.47;0.32;;;2.70;99.90;;;;;;5088868;27;20044;-72
2024/01/29 00:23:35;;;;;;;0.20;0.20;;;2.70;99.90;;;;;;5082470;28;20028;-73
2024/01/29 00:26:00;;;;;;;0.30;0.30;;;2.60;99.90;;;;;;5091280;28;20077;-72
2024/01/29 00:28:26;;;;;;;1.05;0.43;;;2.60;99.90;;;;;;5079739;28;20050;-72
2024/01/29 00:30:51;;;;;;;0.38;0.38;;;2.60;99.90;;;;;;5090256;28;20043;-72
2024/01/29 00:33:18;;;;;;;0.52;0.43;;;2.60;99.90;;;;;;5108871;27;20042;-73
2024/01/29 00:35:43;;;;;;;1.58;0.65;;;2.60;99.90;;;;;;5094083;28;20655;-73
2024/01/29 00:38:09;;;;;;;0.50;0.47;;;2.60;99.90;;;;;;5087380;28;20035;-73
2024/01/29 00:40:34;;;;;;;2.65;0.68;;;2.60;99.90;;;;;;5097265;28;20053;-72
2024/01/29 00:43:01;;;;;;;0.20;0.20;;;2.60;99.90;;;;;;5091190;28;20419;-73
2024/01/29 00:45:27;;;;;;;0.47;0.25;;;2.60;99.90;;;;;;5095733;28;20035;-73
2024/01/29 00:47:52;;;;;;;0.43;0.43;;;2.60;99.90;;;;;;5107886;27;20397;-72
2024/01/29 00:50:18;;;;;;;0.15;0.15;;;2.50;99.90;;;;;;5103545;27;20118;-73
2024/01/29 00:52:43;;;;;;;0.63;0.20;;;2.50;99.90;;;;;;5093184;27;20390;-73
2024/01/29 00:55:09;;;;;;;0.40;0.40;;;2.50;99.90;;;;;;5091084;27;20035;-73
2024/01/29 00:57:34;;;;;;;0.30;0.30;;;2.50;99.90;;;;;;5092362;28;20482;-73
2024/01/29 01:00:00;;;;;;;0.47;0.47;;;2.40;99.90;;;;;;5093223;27;20057;-73
2024/01/29 01:02:25;;;;;;;0.55;0.45;;;2.40;99.90;;;;;;5089993;27;20043;-73
2024/01/29 01:04:51;;;;;;;0.73;0.30;;;2.50;99.90;;;;;;5103590;27;20502;-72
2024/01/29 01:07:16;;;;;;;0.28;0.28;;;2.40;99.90;;;;;;5109492;27;20039;-73
2024/01/29 01:09:42;;;;;;;0.73;0.60;;;2.40;99.90;;;;;;5092502;27;20039;-73
2024/01/29 01:12:08;;;;;;;0.10;0.10;;;2.40;99.90;;;;;;5089770;28;20043;-73
2024/01/29 01:14:33;;;;;;;0.65;0.47;;;2.40;99.90;;;;;;5087657;28;20057;-73
2024/01/29 01:16:59;;;;;;;0.10;0.10;;;2.40;99.90;;;;;;5090741;27;20065;-72
2024/01/29 01:19:24;;;;;;;0.25;0.25;;;2.40;99.90;;;;;;5110827;27;20036;-73
2024/01/29 01:21:50;;;;;;;0.98;0.28;;;2.40;99.90;;;;;;5095752;27;20043;-73
2024/01/29 01:24:16;;;;;;;1.98;1.00;;;2.40;99.90;;;;;;5112029;27;20439;-73
2024/01/29 01:26:41;;;;;;;0.45;0.45;;;2.40;99.90;;;;;;5110511;27;20050;-73
2024/01/29 01:29:07;;;;;;;0.10;0.10;;;2.30;99.90;;;;;;5094495;27;20032;-73
2024/01/29 01:31:33;;;;;;;0.13;0.13;;;2.40;99.90;;;;;;5094576;28;20634;-73
2024/01/29 01:33:58;;;;;;;0.38;0.32;;;2.30;99.90;;;;;;5093625;27;20054;-72
2024/01/29 01:36:24;;;;;;;0.10;0.10;;;2.30;99.90;;;;;;5088848;27;20036;-73
2024/01/29 01:38:49;;;;;;;0.20;0.20;;;2.30;99.90;;;;;;5091152;28;20038;-73
2024/01/29 01:41:15;;;;;;;0.08;0.08;;;2.30;99.90;;;;;;5096343;28;20054;-73
2024/01/29 01:43:40;;;;;;;1.17;0.20;;;2.30;99.90;;;;;;5072252;28;20050;-73
2024/01/29 01:46:14;;;;;;;0.10;0.10;;;2.30;99.90;;;;;;5107795;27;20131;-73
2024/01/29 01:48:40;;;;;;;1.27;0.40;;;2.30;99.90;;;;;;5112130;27;20385;-73
2024/01/29 01:51:06;;;;;;;0.10;0.10;;;2.20;99.90;;;;;;5091361;28;20035;-73
2024/01/29 01:53:34;;;;;;;0.10;0.10;;;2.20;99.90;;;;;;5092173;27;20055;-73
2024/01/29 01:56:00;;;;;;;0.20;0.20;;;2.20;99.90;;;;;;5101638;28;20494;-73
2024/01/29 01:58:27;;;;;;;0.10;0.10;;;2.20;99.90;;;;;;5089563;28;20051;-73
2024/01/29 02:00:54;;;;;;;1.25;0.30;;;2.10;99.90;;;;;;5087914;28;20046;-73
2024/01/29 02:03:20;;;;;;;0.15;0.15;;;2.10;99.90;;;;;;5106562;27;20402;-73
2024/01/29 02:05:46;;;;;;;0.10;0.10;;;2.10;99.90;;;;;;5089533;28;20043;-73
2024/01/29 02:08:13;;;;;;;0.10;0.10;;;2.10;99.90;;;;;;5085372;27;20043;-73
2024/01/29 02:10:39;;;;;;;0.10;0.10;;;2.10;99.90;;;;;;5091494;28;20310;-73
2024/01/29 02:13:11;;;;;;;0.10;0.10;;;2.10;99.90;;;;;;5119707;27;20039;-73
2024/01/29 02:15:37;;;;;;;0.10;0.10;;;2.10;99.90;;;;;;5118089;27;20044;-73
2024/01/29 02:18:03;;;;;;;0.25;0.25;;;2.00;99.90;;;;;;5074989;28;20082;-73
2024/01/29 02:20:29;;;;;;;0.10;0.10;;;2.00;99.90;;;;;;5109581;27;20046;-72
2024/01/29 02:22:55;;;;;;;0.10;0.10;;;2.00;99.90;;;;;;5102636;28;20328;-73
2024/01/29 02:25:20;;;;;;;0.10;0.10;;;2.00;99.90;;;;;;5091121;28;20114;-73
2024/01/29 02:27:46;;;;;;;0.20;0.20;;;2.00;99.90;;;;;;5089144;28;20028;-73
2024/01/29 02:30:12;;;;;;;0.10;0.10;;;2.00;99.90;;;;;;5100084;27;20275;-73
2024/01/29 02:32:37;;;;;;;0.10;0.10;;;2.00;99.90;;;;;;5099072;27;20043;-73
2024/01/29 02:35:03;;;;;;;0.17;0.17;;;1.90;99.90;;;;;;5094800;28;20040;-72
2024/01/29 02:37:29;;;;;;;0.10;0.10;;;1.90;99.90;;;;;;5090034;28;20398;-72
2024/01/29 02:39:56;;;;;;;0.20;0.20;;;1.90;99.90;;;;;;5118306;27;20058;-73
2024/01/29 02:42:21;;;;;;;0.10;0.10;;;1.80;99.90;;;;;;5101918;28;20561;-72
2024/01/29 02:44:47;;;;;;;0.30;0.30;;;1.80;99.90;;;;;;5098509;28;20114;-72
2024/01/29 02:47:15;;;;;;;0.10;0.10;;;1.80;99.90;;;;;;5095602;28;20415;-73
2024/01/29 02:49:43;;;;;;;1.20;0.63;;;1.80;99.90;;;;;;5099465;28;20043;-73
2024/01/29 02:52:11;;;;;;;0.15;0.15;;;1.80;99.90;;;;;;5107578;28;20481;-73
2024/01/29 02:54:37;;;;;;;0.10;0.10;;;1.80;99.90;;;;;;5082272;28;20032;-73
2024/01/29 02:57:03;;;;;;;0.10;0.10;;;1.80;99.90;;;;;;5106569;28;20039;-73
2024/01/29 02:59:29;;;;;;;0.30;0.30;;;1.80;99.90;;;;;;5092732;28;20032;-72
2024/01/29 03:01:55;;;;;;;0.10;0.10;;;1.80;99.90;;;;;;5080035;28;20502;-73
2024/01/29 03:04:21;;;;;;;0.10;0.10;;;1.80;99.90;;;;;;5095317;28;20056;-73
2024/01/29 03:06:46;;;;;;;0.10;0.10;;;1.80;99.90;;;;;;5084553;28;20070;-73
2024/01/29 03:09:12;;;;;;;0.05;0.05;;;1.80;99.90;;;;;;5084002;28;20489;-73
2024/01/29 03:11:37;;;;;;;0.10;0.10;;;1.70;99.90;;;;;;5099542;28;20134;-73
2024/01/29 03:14:03;;;;;;;0.10;0.10;;;1.70;99.90;;;;;;5101069;28;20067;-73
2024/01/29 03:16:29;;;;;;;0.10;0.10;;;1.70;99.90;;;;;;5101542;28;20087;-73
2024/01/29 03:18:54;;;;;;;0.25;0.25;;;1.70;99.90;;;;;;5098738;28;20469;-72
2024/01/29 03:21:20;;;;;;;0.20;0.20;;;1.70;99.90;;;;;;5092658;28;20044;-73
2024/01/29 03:23:45;;;;;;;0.20;0.20;;;1.70;99.90;;;;;;5088149;28;20390;-73
2024/01/29 03:26:11;;;;;;;0.10;0.10;;;1.70;99.90;;;;;;5095036;28;20036;-73
2024/01/29 03:28:36;;;;;;;0.10;0.10;;;1.70;99.90;;;;;;5105326;28;20031;-73
2024/01/29 03:31:02;;;;;;;0.43;0.40;;;1.70;99.90;;;;;;5110829;27;20553;-73
2024/01/29 03:33:27;;;;;;;0.10;0.10;;;1.60;99.90;;;;;;5086830;28;20039;-73
2024/01/29 03:35:53;;;;;;;0.10;0.10;;;1.60;99.90;;;;;;5099646;27;20132;-73
2024/01/29 03:38:19;;;;;;;0.10;0.10;;;1.60;99.90;;;;;;5101779;28;20478;-73
2024/01/29 03:40:46;;;;;;;0.10;0.10;;;1.60;99.90;;;;;;5113270;27;20044;-73
2024/01/29 03:43:12;;;;;;;0.20;0.20;;;1.60;99.90;;;;;;5087399;28;20040;-73
2024/01/29 03:45:37;;;;;;;0.10;0.10;;;1.60;99.90;;;;;;5113268;27;20039;-73
2024/01/29 03:48:03;;;;;;;0.10;0.10;;;1.50;99.90;;;;;;5095510;28;20046;-73
2024/01/29 03:50:28;;;;;;;0.90;0.30;;;1.50;99.90;;;;;;5117956;27;20031;-73
2024/01/29 03:52:54;;;;;;;0.10;0.10;;;1.50;99.90;;;;;;5092125;28;20093;-73
2024/01/29 03:55:20;;;;;;;0.15;0.15;;;1.50;99.90;;;;;;5089369;28;20085;-73
2024/01/29 03:57:45;;;;;;;0.47;0.47;;;1.50;99.90;;;;;;5096586;27;20046;-73
2024/01/29 04:00:11;;;;;;;0.10;0.10;;;1.50;99.90;;;;;;5099521;28;20036;-73
2024/01/29 04:02:37;;;;;;;0.10;0.10;;;1.40;99.90;;;;;;5075383;27;20242;-73
2024/01/29 04:05:03;;;;;;;0.47;0.22;;;1.50;99.90;;;;;;5089411;27;20502;-73
2024/01/29 04:07:28;;;;;;;0.17;0.17;;;1.50;99.90;;;;;;5107054;27;20046;-73
2024/01/29 04:09:54;;;;;;;0.55;0.20;;;1.50;99.90;;;;;;5115927;27;20439;-73
2024/01/29 04:12:19;;;;;;;0.20;0.20;;;1.50;99.90;;;;;;5095518;27;20431;-73
2024/01/29 04:14:45;;;;;;;0.47;0.47;;;1.40;99.90;;;;;;5098429;27;20525;-73
2024/01/29 04:17:12;;;;;;;0.45;0.30;;;1.40;99.90;;;;;;5114966;27;20024;-73
2024/01/29 04:19:39;;;;;;;0.30;0.30;;;1.40;99.90;;;;;;5097901;27;20461;-73
2024/01/29 04:22:05;;;;;;;0.20;0.20;;;1.40;99.90;;;;;;5105241;27;20035;-73
2024/01/29 04:24:30;;;;;;;6.43;1.10;;;1.40;99.90;;;;;;5098275;27;20420;-73
2024/01/29 04:26:56;;;;;;;0.20;0.20;;;1.50;99.90;;;;;;5088483;27;20126;-73
2024/01/29 04:29:22;;;;;;;0.22;0.10;;;1.50;99.90;;;;;;5091761;27;20043;-73
2024/01/29 04:31:48;;;;;;;0.10;0.10;;;1.50;99.90;;;;;;5090631;28;20039;-73
2024/01/29 04:34:15;;;;;;;0.32;0.32;;;1.50;99.90;;;;;;5096182;28;20528;-73
2024/01/29 04:36:40;;;;;;;0.20;0.20;;;1.50;99.90;;;;;;5076621;28;20047;-73
2024/01/29 04:39:06;;;;;;;0.10;0.10;;;1.50;99.90;;;;;;5096780;28;20075;-73
2024/01/29 04:41:31;;;;;;;0.20;0.20;;;1.50;99.90;;;;;;5093099;27;22282;-73
2024/01/29 04:43:57;;;;;;;2.15;0.50;;;1.50;99.90;;;;;;5094416;28;20031;-73
2024/01/29 04:46:23;;;;;;;0.10;0.10;;;1.50;99.90;;;;;;5094605;28;20039;-73
2024/01/29 04:48:49;;;;;;;0.10;0.10;;;1.60;99.90;;;;;;5101386;27;20039;-73
2024/01/29 04:51:15;;;;;;;0.20;0.20;;;1.60;99.90;;;;;;5107310;27;20370;-73
2024/01/29 04:53:40;;;;;;;0.10;0.10;;;1.60;99.90;;;;;;5110367;27;20081;-73
2024/01/29 04:56:07;;;;;;;0.10;0.10;;;1.60;99.90;;;;;;5094367;27;20039;-73
2024/01/29 04:58:32;;;;;;;0.10;0.10;;;1.60;99.90;;;;;;5085532;28;20043;-73
2024/01/29 05:00:59;;;;;;;0.10;0.10;;;1.60;99.90;;;;;;5097265;28;20398;-73
2024/01/29 05:03:26;;;;;;;0.17;0.17;;;1.60;99.90;;;;;;5092589;28;20038;-73
2024/01/29 05:05:51;;;;;;;0.10;0.10;;;1.60;99.90;;;;;;5079651;27;20032;-73
2024/01/29 05:08:18;;;;;;;0.10;0.10;;;1.70;99.90;;;;;;5094776;27;20047;-73
2024/01/29 05:10:44;;;;;;;0.20;0.20;;;1.70;99.90;;;;;;5092401;28;20524;-73
2024/01/29 05:13:10;;;;;;;0.10;0.10;;;1.70;99.90;;;;;;5110816;27;20039;-73
2024/01/29 05:15:36;;;;;;;0.65;0.35;;;1.70;99.90;;;;;;5093744;27;20065;-74
2024/01/29 05:18:01;;;;;;;0.10;0.10;;;1.70;99.90;;;;;;5093391;28;20047;-74
2024/01/29 05:20:27;;;;;;;0.22;0.22;;;1.70;99.90;;;;;;5104201;27;20085;-73
2024/01/29 05:22:52;;;;;;;0.32;0.32;;;1.70;99.90;;;;;;5085757;28;20547;-73
2024/01/29 05:25:18;;;;;;;0.00;0.00;;;1.70;99.90;;;;;;5087376;27;20180;-73
2024/01/29 05:27:44;;;;;;;0.60;0.60;;;1.70;99.90;;;;;;5103614;27;20390;-73
2024/01/29 05:30:10;;;;;;;0.10;0.10;;;1.70;99.90;;;;;;5111401;27;20047;-73
2024/01/29 05:32:35;;;;;;;0.20;0.15;;;1.70;99.90;;;;;;5090216;27;20043;-73
2024/01/29 05:35:01;;;;;;;0.20;0.20;;;1.70;99.90;;;;;;5108781;27;20551;-73
2024/01/29 05:37:27;;;;;;;0.13;0.13;;;1.70;99.90;;;;;;5087096;28;20040;-73
2024/01/29 05:39:52;;;;;;;0.10;0.10;;;1.70;99.90;;;;;;5113353;27;21832;-73
2024/01/29 05:42:18;;;;;;;1.13;0.70;;;1.70;99.90;;;;;;5092292;28;20047;-73
2024/01/29 05:44:43;;;;;;;1.80;0.32;;;1.70;99.90;;;;;;5105483;27;20072;-73
2024/01/29 05:47:09;;;;;;;0.35;0.35;;;1.70;99.90;;;;;;5089271;27;20040;-73
2024/01/29 05:49:34;;;;;;;3.03;0.55;;;1.70;99.90;;;;;;5077953;27;20497;-74
2024/01/29 05:52:00;;;;;;;0.28;0.22;;;1.70;99.90;;;;;;5102980;27;20133;-73
2024/01/29 05:54:25;;;;;;;0.65;0.20;;;1.80;99.90;;;;;;5097571;27;20125;-73
2024/01/29 05:56:51;;;;;;;0.15;0.15;;;1.70;99.90;;;;;;5102423;27;20402;-73
2024/01/29 05:59:16;;;;;;;0.55;0.52;;;1.80;99.90;;;;;;5087732;28;20132;-73
2024/01/29 06:01:42;;;;;;;0.20;0.10;;;1.80;99.90;;;;;;5089263;28;21164;-73
2024/01/29 06:04:08;;;;;;;0.10;0.10;;;1.80;99.90;;;;;;5106379;27;20043;-73
2024/01/29 06:06:35;;;;;;;0.20;0.20;;;1.80;99.90;;;;;;5093591;28;20029;-73
2024/01/29 06:09:01;;;;;;;0.40;0.40;;;1.80;99.90;;;;;;5113590;27;20031;-73
2024/01/29 06:11:27;;;;;;;0.15;0.15;;;1.90;99.90;;;;;;5094954;28;20040;-73
2024/01/29 06:13:53;;;;;;;0.10;0.10;;;1.90;99.90;;;;;;5085404;27;20065;-73
2024/01/29 06:16:22;;;;;;;1.13;0.15;;;1.90;99.90;;;;;;5100915;27;20470;-73
2024/01/29 06:18:48;;;;;;;0.10;0.10;;;1.90;99.90;;;;;;5104786;27;20474;-73
2024/01/29 06:21:13;;;;;;;0.10;0.10;;;1.90;99.90;;;;;;5090175;28;20043;-73
2024/01/29 06:23:39;;;;;;;0.10;0.10;;;2.00;99.90;;;;;;5091386;28;20039;-73
2024/01/29 06:26:04;;;;;;;0.00;0.00;;;2.00;99.90;;;;;;5093298;28;20040;-73
2024/01/29 06:28:30;;;;;;;0.15;0.15;;;2.00;99.90;;;;;;5111075;27;20116;-73
2024/01/29 06:30:55;;;;;;;0.10;0.10;;;2.00;99.90;;;;;;5092652;28;20085;-73
2024/01/29 06:33:21;;;;;;;0.13;0.13;;;1.90;99.90;;;;;;5103587;27;20039;-73
2024/01/29 06:35:47;;;;;;;0.80;0.22;;;2.00;99.90;;;;;;5094528;28;20031;-73
2024/01/29 06:38:12;;;;;;;1.15;0.85;;;2.00;99.90;;;;;;5088490;28;20044;-73
2024/01/29 06:40:38;;;;;;;0.20;0.20;;;2.00;99.90;;;;;;5090954;28;20123;-73
2024/01/29 06:43:03;;;;;;;0.10;0.10;;;1.90;99.90;;;;;;5107621;28;20039;-74
2024/01/29 06:45:30;;;;;;;0.10;0.10;;;1.90;99.90;;;;;;5106479;28;20028;-73
2024/01/29 06:47:57;;;;;;;0.20;0.20;;;1.90;99.90;;;;;;5104233;28;20031;-73
2024/01/29 06:50:23;;;;;;;0.10;0.10;;;1.90;99.90;;;;;;5092667;28;20060;-73
2024/01/29 06:52:48;;;;;;;0.32;0.32;;;1.90;99.90;;;;;;5094519;28;20395;-74
2024/01/29 06:55:14;;;;;;;0.20;0.20;;;1.90;99.90;;;;;;5088051;28;20062;-73
2024/01/29 06:57:39;;;;;;;0.20;0.20;;;1.90;99.90;;;;;;5095188;28;20044;-73
2024/01/29 07:00:06;;;;;;;0.22;0.22;;;1.90;99.90;;;;;;5097284;28;20050;-73
2024/01/29 07:02:32;;;;;;;0.10;0.10;;;2.00;99.90;;;;;;5092702;28;20111;-73
2024/01/29 07:04:57;;;;;;;0.10;0.10;;;2.00;99.90;;;;;;5099583;27;20133;-73
2024/01/29 07:07:23;;;;;;;0.70;0.43;;;2.00;99.90;;;;;;5094018;27;20378;-73
2024/01/29 07:09:53;;;;;;;0.10;0.10;;;2.00;99.90;;;;;;5100504;27;20053;-73
2024/01/29 07:12:18;;;;;;;0.10;0.10;;;1.90;99.90;;;;;;5089533;27;20039;-73
2024/01/29 07:14:44;;;;;;;0.10;0.10;;;2.00;99.90;;;;;;5114021;27;20070;-75
2024/01/29 07:17:09;;;;;;;0.20;0.20;;;2.00;99.90;;;;;;5098164;27;20371;-73
2024/01/29 07:19:35;;;;;;;0.10;0.10;;;2.00;99.90;;;;;;5116360;27;20470;-73
2024/01/29 07:22:04;;;;;;;0.30;0.30;;;2.00;99.90;;;;;;5110827;27;20056;-74
2024/01/29 07:24:34;;;;;;;0.10;0.10;;;2.00;99.90;;;;;;5111228;27;20046;-74
2024/01/29 07:27:00;;;;;;;0.20;0.20;;;2.00;99.90;;;;;;5114761;27;20474;-73
2024/01/29 07:29:30;;;;;;;0.10;0.10;;;2.00;99.90;;;;;;5089086;27;20039;-73
2024/01/29 07:31:55;;;;;;;0.10;0.10;;;2.00;99.90;;;;;;5099755;27;20570;-73
2024/01/29 07:34:21;;;;;;;0.13;0.13;;;2.10;99.90;;;;;;5108976;27;20063;-73
2024/01/29 07:36:47;;;;;;;0.10;0.10;;;2.10;99.90;;;;;;5091229;27;20143;-74
2024/01/29 07:39:13;;;;;;;0.13;0.13;;;2.10;99.90;;;;;;5085477;27;20134;-73
2024/01/29 07:41:39;;;;;;;0.10;0.10;;;2.20;99.90;;;;;;5098871;27;20044;-73
2024/01/29 07:44:05;;;;;;;0.13;0.13;;;2.20;99.90;;;;;;5093932;27;20036;-74
2024/01/29 07:46:30;;;;;;;0.20;0.20;;;2.30;99.90;;;;;;5116367;27;20087;-73
2024/01/29 07:48:59;;;;;;;2.40;1.13;;;2.40;99.90;;;;;;5091751;28;20038;-73
2024/01/29 07:51:25;;;;;;;0.32;0.32;;;2.50;99.90;;;;;;5090642;27;20035;-73
2024/01/29 07:53:51;;;;;;;0.40;0.40;;;2.70;99.90;;;;;;5095763;27;20042;-74
2024/01/29 07:56:16;;;;;;;1.35;0.50;;;2.70;99.90;;;;;;5102228;27;20584;-73
2024/01/29 07:58:42;;;;;;;1.25;0.73;;;2.80;99.90;;;;;;5094595;27;20428;-72
2024/01/29 08:01:07;;;;;;;2.35;0.85;;;2.90;99.90;;;;;;5119220;27;20097;-73
2024/01/29 08:03:33;;;;;;;0.70;0.40;;;3.00;99.90;;;;;;5092942;27;20122;-74
2024/01/29 08:05:58;;;;;;;0.32;0.30;;;3.10;99.90;;;;;;5100367;27;21195;-74
2024/01/29 08:08:24;;;;;;;0.95;0.80;;;3.20;99.90;;;;;;5109027;27;20030;-73
2024/01/29 08:10:49;;;;;;;3.80;1.17;;;3.30;99.90;;;;;;5109823;27;20050;-72
2024/01/29 08:13:15;;;;;;;1.70;1.02;;;3.40;99.90;;;;;;5105771;27;20048;-73
2024/01/29 08:15:41;;;;;;;9.02;2.22;;;3.50;99.90;;;;;;5110008;27;20133;-73
2024/01/29 08:18:06;;;;;;;1.67;1.38;;;3.60;99.90;;;;;;5088261;27;20518;-73
2024/01/29 08:20:32;;;;;;;0.73;0.55;;;3.70;99.90;;;;;;5093783;27;20098;-73
2024/01/29 08:22:58;;;;;;;1.15;1.00;;;3.80;99.90;;;;;;5101270;27;20047;-73
2024/01/29 08:25:26;;;;;;;0.50;0.50;;;3.90;99.90;;;;;;5111666;27;20367;-73
2024/01/29 08:27:51;;;;;;;0.30;0.30;;;4.00;99.90;;;;;;5099051;28;20035;-74
2024/01/29 08:30:17;;;;;;;0.50;0.50;;;4.10;99.90;;;;;;5110229;27;20091;-73
2024/01/29 08:32:44;;;;;;;0.77;0.52;;;4.20;99.90;;;;;;5090973;28;20881;-73
2024/01/29 08:35:10;;;;;;;0.47;0.47;;;4.20;99.90;;;;;;5098567;27;20043;-73
2024/01/29 08:37:36;;;;;;;0.38;0.35;;;4.30;99.90;;;;;;5097521;27;20039;-74
2024/01/29 08:40:02;;;;;;;2.47;0.98;;;4.40;99.90;;;;;;5092636;28;20568;-73
2024/01/29 08:42:28;;;;;;;3.10;1.08;;;4.50;99.90;;;;;;5072118;28;20032;-74
2024/01/29 08:44:56;;;;;;;1.95;1.20;;;4.60;99.90;;;;;;5091465;27;20042;-74
2024/01/29 08:47:22;;;;;;;0.70;0.65;;;4.60;99.90;;;;;;5095730;27;20040;-73
2024/01/29 08:49:49;;;;;;;1.65;0.73;;;4.70;99.90;;;;;;5091240;27;20525;-75
2024/01/29 08:52:15;;;;;;;1.55;0.95;;;4.80;99.90;;;;;;5094430;27;20851;-74
2024/01/29 08:54:41;;;;;;;0.68;0.68;;;4.80;99.90;;;;;;5073497;28;20051;-74
2024/01/29 08:57:07;;;;;;;0.50;0.50;;;4.90;99.90;;;;;;5118624;27;20461;-75
2024/01/29 08:59:32;;;;;;;1.20;0.90;;;5.00;99.90;;;;;;5092666;27;20406;-74
2024/01/29 09:01:58;;;;;;;0.77;0.70;;;5.10;99.90;;;;;;5094650;27;20501;-73
2024/01/29 09:04:24;;;;;;;1.33;0.73;;;5.10;99.90;;;;;;5111540;27;20042;-74
2024/01/29 09:06:50;;;;;;;0.57;0.57;;;5.20;99.90;;;;;;5099469;27;20038;-74
2024/01/29 09:09:16;;;;;;;0.70;0.63;;;5.20;99.90;;;;;;5096109;27;20158;-74
2024/01/29 09:11:41;;;;;;;0.30;0.30;;;5.20;99.90;;;;;;5097929;27;20117;-75
2024/01/29 09:14:07;;;;;;;2.10;0.60;;;5.30;99.90;;;;;;5091531;28;20058;-72
2024/01/29 09:16:33;;;;;;;1.02;0.88;;;5.20;99.90;;;;;;5094227;28;20078;-76
2024/01/29 09:18:59;;;;;;;0.60;0.60;;;5.40;99.90;;;;;;5090970;28;20039;-75
2024/01/29 09:21:25;;;;;;;0.60;0.60;;;5.40;99.90;;;;;;5092739;27;20251;-74
2024/01/29 09:23:51;;;;;;;4.10;1.08;;;5.50;99.90;;;;;;5088912;27;20047;-74
2024/01/29 09:26:17;;;;;;;7.63;1.58;;;5.60;99.90;;;;;;5087998;27;20038;-76
2024/01/29 09:28:43;;;;;;;1.02;1.02;;;5.60;99.90;;;;;;5087247;27;20050;-75
2024/01/29 09:31:09;;;;;;;0.38;0.35;;;5.80;99.90;;;;;;5097589;28;20082;-75
2024/01/29 09:33:35;;;;;;;0.30;0.30;;;5.90;99.90;;;;;;5086403;27;20055;-74
2024/01/29 09:36:02;;;;;;;1.70;1.33;;;5.90;99.90;;;;;;5089565;28;20070;-76
2024/01/29 09:38:27;;;;;;;0.73;0.73;;;6.00;99.90;;;;;;5085754;27;20058;-75
2024/01/29 09:40:54;;;;;;;0.57;0.57;;;6.00;99.90;;;;;;5089993;28;20036;-76
2024/01/29 09:43:21;;;;;;;0.73;0.57;;;6.10;99.90;;;;;;5112704;27;20067;-76
2024/01/29 09:45:50;;;;;;;0.45;0.45;;;6.10;99.90;;;;;;5097744;28;20027;-75
2024/01/29 09:48:16;;;;;;;1.92;1.48;;;6.20;99.90;;;;;;5094727;28;20039;-76
2024/01/29 09:50:43;;;;;;;0.52;0.52;;;6.20;99.90;;;;;;5105229;27;20066;-75
2024/01/29 09:53:11;;;;;;;0.55;0.50;;;6.30;99.90;;;;;;5104214;27;20054;-75
2024/01/29 09:55:37;;;;;;;0.38;0.38;;;6.30;99.90;;;;;;5092339;28;20217;-75
2024/01/29 09:58:03;;;;;;;1.08;1.02;;;6.30;99.90;;;;;;5116454;27;20470;-75
2024/01/29 10:00:29;;;;;;;1.77;1.10;;;6.30;99.90;;;;;;5091318;27;20088;-75
2024/01/29 10:02:58;;;;;;;7.90;2.10;;;6.30;99.90;;;;;;5090843;28;20059;-74
2024/01/29 10:05:29;;;;;;;1.05;0.77;;;6.30;99.90;;;;;;5108650;27;20036;-74
2024/01/29 10:07:56;;;;;;;2.75;1.48;;;6.30;99.90;;;;;;5091779;27;20038;-75
2024/01/29 10:10:24;;;;;;;1.38;0.82;;;6.20;99.90;;;;;;5089706;28;20486;-75
2024/01/29 10:12:49;;;;;;;5.22;1.45;;;6.20;99.90;;;;;;5095360;27;20036;-75
2024/01/29 10:15:15;;;;;;;1.20;1.10;;;6.10;99.90;;;;;;5087632;28;20050;-75
2024/01/29 10:17:41;;;;;;;0.90;0.85;;;6.10;99.90;;;;;;5105835;28;20051;-75
2024/01/29 10:20:20;;;;;;;0.68;0.68;;;6.20;99.90;;;;;;5104615;27;20035;-75
2024/01/29 10:22:46;;;;;;;0.22;0.22;;;6.20;99.90;;;;;;5110819;27;20051;-75
2024/01/29 10:25:14;;;;;;;0.40;0.40;;;6.30;99.90;;;;;;5073235;28;20131;-75
2024/01/29 10:27:40;;;;;;;1.45;1.15;;;6.40;99.90;;;;;;5107907;27;20566;-74
2024/01/29 10:30:07;;;;;;;1.00;0.45;;;6.50;99.90;;;;;;5086111;28;20132;-75
2024/01/29 10:32:32;;;;;;;0.85;0.85;;;6.60;99.90;;;;;;5089156;28;20051;-75
2024/01/29 10:34:58;;;;;;;0.52;0.40;;;6.60;99.90;;;;;;5080502;28;20036;-75
2024/01/29 10:37:26;;;;;;;0.80;0.35;;;6.70;99.90;;;;;;5079402;28;20036;-75
2024/01/29 10:39:54;;;;;;;0.28;0.25;;;6.80;99.90;;;;;;5089062;28;20043;-76
2024/01/29 10:42:20;;;;;;;0.85;0.82;;;6.80;99.90;;;;;;5092409;27;20176;-75
2024/01/29 10:44:46;;;;;;;0.52;0.52;;;7.00;99.90;;;;;;5088429;28;20039;-75
2024/01/29 10:47:29;;;;;;;1.35;1.25;;;7.10;99.90;;;;;;5109930;28;20041;-75
2024/01/29 10:49:56;;;;;;;;;;;7.20;99.90;;;;;;5109456;28;20485;-75
2024/01/29 10:52:23;;;;;;;4.13;1.38;;;7.30;99.90;;;;;;5100793;28;20014;-75
2024/01/29 10:54:49;;;;;;;0.63;0.57;;;7.40;99.90;;;;;;5095049;28;20043;-75
2024/01/29 10:57:15;;;;;;;1.67;0.82;;;7.50;99.90;;;;;;5109410;28;20040;-74
2024/01/29 10:59:43;;;;;;;2.67;1.92;;;7.60;99.90;;;;;;5088928;28;20044;-75
2024/01/29 11:02:16;;;;;;;2.90;1.52;;;7.70;99.90;;;;;;5077051;28;20081;-76
2024/01/29 11:04:42;;;;;;;;;;;7.80;99.90;;;;;;5090719;28;20047;-75
2024/01/29 11:07:15;;;;;;;7.78;1.88;;;7.80;99.90;;;;;;5111172;28;19915;-76
2024/01/29 11:09:57;;;;;;;1.05;0.75;;;7.90;99.90;;;;;;5091751;28;20032;-74
2024/01/29 11:12:23;;;;;;;0.93;0.63;;;8.00;99.90;;;;;;5098876;28;20384;-75
2024/01/29 11:15:00;;;;;;;1.33;1.15;;;8.20;99.90;;;;;;5107014;28;20440;-74
2024/01/29 11:17:26;;;;;;;1.10;0.95;;;8.30;99.90;;;;;;5107695;28;20039;-75
2024/01/29 11:19:52;;;;;;;2.55;2.38;;;8.30;99.90;;;;;;5104022;28;20043;-75
2024/01/29 11:22:17;;;;;;;2.35;1.35;;;8.30;99.90;;;;;;5098414;28;20039;-74
2024/01/29 11:24:44;;;;;;;3.80;0.93;;;8.40;99.90;;;;;;5084424;28;20044;-77
2024/01/29 11:27:12;;;;;;;2.28;1.52;;;8.40;99.90;;;;;;5078650;28;20043;-75
2024/01/29 11:29:38;;;;;;;1.65;1.55;;;8.30;99.90;;;;;;5101536;28;20031;-75
2024/01/29 11:32:05;;;;;;;1.35;1.25;;;8.30;99.90;;;;;;5107433;28;20549;-74
2024/01/29 11:34:30;;;;;;;1.98;1.02;;;8.30;99.90;;;;;;5092672;28;20036;-75
2024/01/29 11:36:56;;;;;;;4.25;1.42;;;8.30;99.90;;;;;;5103942;28;20051;-75
2024/01/29 11:39:27;;;;;;;1.00;0.98;;;8.30;99.90;;;;;;5083496;28;20039;-75
2024/01/29 11:41:53;;;;;;;0.65;0.65;;;8.30;99.90;;;;;;5098710;28;20054;-75
2024/01/29 11:44:18;;;;;;;2.47;1.17;;;8.30;99.90;;;;;;5090923;28;20036;-75
2024/01/29 11:46:44;;;;;;;0.63;0.63;;;8.30;99.90;;;;;;5097145;28;20032;-75
2024/01/29 11:49:10;;;;;;;0.80;0.60;;;8.30;99.90;;;;;;5084661;28;20085;-75
2024/01/29 11:51:37;;;;;;;3.35;1.13;;;8.30;99.90;;;;;;5080241;28;20048;-75
2024/01/29 11:54:03;;;;;;;1.38;1.27;;;8.40;99.90;;;;;;5084828;28;20459;-75
2024/01/29 11:56:29;;;;;;;1.27;1.17;;;8.40;99.90;;;;;;5082972;28;20039;-75
2024/01/29 11:59:02;;;;;;;1.33;1.25;;;8.40;99.90;;;;;;5104090;28;20406;-76
2024/01/29 12:01:31;;;;;;;2.03;1.08;;;8.50;99.90;;;;;;5092782;28;20071;-75
2024/01/29 12:03:58;;;;;;;0.98;0.82;;;8.60;99.90;;;;;;5096141;28;20074;-75
2024/01/29 12:06:24;;;;;;;0.65;0.65;;;8.70;99.90;;;;;;5104070;28;20036;-76
2024/01/29 12:08:53;;;;;;;0.95;0.38;;;8.80;99.90;;;;;;5111055;27;20114;-75
2024/01/29 12:11:20;;;;;;;3.67;0.70;;;8.90;99.90;;;;;;5113985;27;20047;-75
2024/01/29 12:13:47;;;;;;;1.00;0.88;;;9.00;99.90;;;;;;5086332;28;20052;-75
2024/01/29 12:16:14;;;;;;;0.60;0.60;;;9.10;99.90;;;;;;5077475;28;20115;-75
2024/01/29 12:18:40;;;;;;;4.43;1.10;;;9.10;99.90;;;;;;5102078;28;20039;-75
2024/01/29 12:21:06;;;;;;;1.10;0.85;;;9.00;99.90;;;;;;5103774;27;20033;-75
2024/01/29 12:23:32;;;;;;;1.02;0.80;;;9.00;99.90;;;;;;5087633;28;20046;-75
2024/01/29 12:25:58;;;;;;;0.80;0.80;;;9.00;99.90;;;;;;5085177;28;20035;-75
2024/01/29 12:28:25;;;;;;;3.83;1.88;;;9.10;99.90;;;;;;5090832;27;20094;-76
2024/01/29 12:30:58;;;;;;;1.33;1.20;;;9.10;99.90;;;;;;5092803;27;20035;-75
2024/01/29 12:33:31;;;;;;;4.78;0.85;;;9.10;99.90;;;;;;5091827;28;20040;-76
2024/01/29 12:36:14;;;;;;;0.85;0.85;;;9.10;99.90;;;;;;5078150;28;20093;-74
2024/01/29 12:38:40;;;;;;;0.47;0.47;;;9.10;99.90;;;;;;5092140;27;20043;-74
2024/01/29 12:41:06;;;;;;;1.17;0.75;;;9.20;99.90;;;;;;5086673;28;20044;-75
2024/01/29 12:43:32;;;;;;;0.45;0.45;;;9.30;99.90;;;;;;5084416;28;20035;-75
2024/01/29 12:46:12;;;;;;;1.35;0.95;;;9.40;99.90;;;;;;5094881;28;20045;-75
2024/01/29 12:48:38;;;;;;;0.50;0.50;;;9.50;99.90;;;;;;5084209;28;20413;-75
2024/01/29 12:51:05;;;;;;;1.20;0.75;;;9.60;99.90;;;;;;5085550;28;20051;-74
2024/01/29 12:53:31;;;;;;;0.60;0.30;;;9.70;99.90;;;;;;5083236;28;20044;-74